sensor_id;sensor_type;location;lat;lon;timestamp;P1;durP1;ratioP1;P2;durP2;ratioP2
18702;SDS011;9481;48.796;9.210;2022-11-13T00:01:06;6.00;;;5.00;;
18702;SDS011;9481;48.796;9.210;2022-11-13T00:03:44;5.97;;;4.80;;
18702;SDS011;9481;48.796;9.210;2022-11-13T00:06:11;5.57;;;4.30;;
18702;SDS011;9481;48.796;9.210;2022-11-13T00:08:37;6.77;;;4.90;;
18702;SDS011;9481;48.796;9.210;2022-11-13T00:11:08;4.43;;;3.97;;
18702;SDS011;9481;48.796;9.210;2022-11-13T00:13:37;5.73;;;4.20;;
18702;SDS011;9481;48.796;9.210;2022-11-13T00:16:04;5.27;;;4.03;;
18702;SDS011;9481;48.796;9.210;2022-11-13T00:18:34;4.53;;;4.00;;
18702;SDS011;9481;48.796;9.210;2022-11-13T00:21:07;4.13;;;3.70;;
18702;SDS011;9481;48.796;9.210;2022-11-13T00:23:38;4.30;;;3.50;;
18702;SDS011;9481;48.796;9.210;2022-11-13T00:26:12;4.40;;;3.70;;
18702;SDS011;9481;48.796;9.210;2022-11-13T00:28:44;4.57;;;3.60;;
18702;SDS011;9481;48.796;9.210;2022-11-13T00:31:11;4.17;;;3.73;;
18702;SDS011;9481;48.796;9.210;2022-11-13T00:33:39;3.97;;;3.30;;
18702;SDS011;9481;48.796;9.210;2022-11-13T00:36:19;4.27;;;3.70;;
18702;SDS011;9481;48.796;9.210;2022-11-13T00:38:47;4.57;;;3.73;;
18702;SDS011;9481;48.796;9.210;2022-11-13T00:41:13;4.80;;;3.67;;
18702;SDS011;9481;48.796;9.210;2022-11-13T00:43:39;4.70;;;3.50;;
18702;SDS011;9481;48.796;9.210;2022-11-13T00:46:05;5.03;;;3.63;;
18702;SDS011;9481;48.796;9.210;2022-11-13T00:48:32;4.43;;;3.60;;
18702;SDS011;9481;48.796;9.210;2022-11-13T00:50:58;4.30;;;3.67;;
18702;SDS011;9481;48.796;9.210;2022-11-13T00:53:23;4.40;;;4.00;;
18702;SDS011;9481;48.796;9.210;2022-11-13T00:55:50;5.40;;;4.10;;
18702;SDS011;9481;48.796;9.210;2022-11-13T00:58:16;5.80;;;4.27;;
18702;SDS011;9481;48.796;9.210;2022-11-13T01:00:42;4.50;;;3.80;;
18702;SDS011;9481;48.796;9.210;2022-11-13T01:03:10;4.80;;;4.10;;
18702;SDS011;9481;48.796;9.210;2022-11-13T01:05:37;6.70;;;4.30;;
18702;SDS011;9481;48.796;9.210;2022-11-13T01:08:05;4.67;;;4.00;;
18702;SDS011;9481;48.796;9.210;2022-11-13T01:10:34;4.87;;;3.97;;
18702;SDS011;9481;48.796;9.210;2022-11-13T01:13:04;5.20;;;3.67;;
18702;SDS011;9481;48.796;9.210;2022-11-13T01:15:29;6.93;;;4.20;;
18702;SDS011;9481;48.796;9.210;2022-11-13T01:17:55;5.50;;;4.30;;
18702;SDS011;9481;48.796;9.210;2022-11-13T01:20:21;5.47;;;4.27;;
18702;SDS011;9481;48.796;9.210;2022-11-13T01:22:48;6.10;;;4.53;;
18702;SDS011;9481;48.796;9.210;2022-11-13T01:25:14;5.10;;;4.13;;
18702;SDS011;9481;48.796;9.210;2022-11-13T01:27:42;6.47;;;4.40;;
18702;SDS011;9481;48.796;9.210;2022-11-13T01:30:08;7.67;;;4.73;;
18702;SDS011;9481;48.796;9.210;2022-11-13T01:32:35;6.83;;;4.53;;
18702;SDS011;9481;48.796;9.210;2022-11-13T01:35:00;4.90;;;4.37;;
18702;SDS011;9481;48.796;9.210;2022-11-13T01:37:26;6.20;;;4.53;;
18702;SDS011;9481;48.796;9.210;2022-11-13T01:39:52;5.50;;;4.70;;
18702;SDS011;9481;48.796;9.210;2022-11-13T01:42:18;6.73;;;4.97;;
18702;SDS011;9481;48.796;9.210;2022-11-13T01:44:45;7.27;;;4.53;;
18702;SDS011;9481;48.796;9.210;2022-11-13T01:47:16;6.03;;;4.73;;
18702;SDS011;9481;48.796;9.210;2022-11-13T01:49:44;5.37;;;4.67;;
18702;SDS011;9481;48.796;9.210;2022-11-13T01:54:51;6.13;;;4.20;;
18702;SDS011;9481;48.796;9.210;2022-11-13T01:57:20;6.17;;;4.63;;
18702;SDS011;9481;48.796;9.210;2022-11-13T01:59:54;5.20;;;4.60;;
18702;SDS011;9481;48.796;9.210;2022-11-13T02:02:25;5.53;;;4.70;;
18702;SDS011;9481;48.796;9.210;2022-11-13T02:04:51;5.77;;;4.70;;
18702;SDS011;9481;48.796;9.210;2022-11-13T02:07:18;5.90;;;4.37;;
18702;SDS011;9481;48.796;9.210;2022-11-13T02:09:47;6.00;;;5.00;;
18702;SDS011;9481;48.796;9.210;2022-11-13T02:12:40;5.33;;;4.60;;
18702;SDS011;9481;48.796;9.210;2022-11-13T02:15:12;5.30;;;4.70;;
18702;SDS011;9481;48.796;9.210;2022-11-13T02:17:42;5.27;;;4.47;;
18702;SDS011;9481;48.796;9.210;2022-11-13T02:20:16;9.20;;;4.40;;
18702;SDS011;9481;48.796;9.210;2022-11-13T02:23:01;5.23;;;4.20;;
18702;SDS011;9481;48.796;9.210;2022-11-13T02:25:42;6.53;;;4.60;;
18702;SDS011;9481;48.796;9.210;2022-11-13T02:28:11;6.13;;;4.40;;
18702;SDS011;9481;48.796;9.210;2022-11-13T02:30:36;5.10;;;4.57;;
18702;SDS011;9481;48.796;9.210;2022-11-13T02:33:16;5.73;;;4.47;;
18702;SDS011;9481;48.796;9.210;2022-11-13T02:35:52;5.17;;;4.50;;
18702;SDS011;9481;48.796;9.210;2022-11-13T02:38:18;5.60;;;4.07;;
18702;SDS011;9481;48.796;9.210;2022-11-13T02:40:44;5.60;;;4.27;;
18702;SDS011;9481;48.796;9.210;2022-11-13T02:43:10;5.70;;;4.33;;
18702;SDS011;9481;48.796;9.210;2022-11-13T02:45:35;4.87;;;4.07;;
18702;SDS011;9481;48.796;9.210;2022-11-13T02:48:02;4.80;;;4.30;;
18702;SDS011;9481;48.796;9.210;2022-11-13T02:50:29;4.77;;;4.30;;
18702;SDS011;9481;48.796;9.210;2022-11-13T02:52:55;4.73;;;3.93;;
18702;SDS011;9481;48.796;9.210;2022-11-13T02:55:21;4.50;;;3.87;;
18702;SDS011;9481;48.796;9.210;2022-11-13T02:57:48;4.60;;;4.10;;
18702;SDS011;9481;48.796;9.210;2022-11-13T03:00:13;4.73;;;3.90;;
18702;SDS011;9481;48.796;9.210;2022-11-13T03:02:40;4.97;;;4.47;;
18702;SDS011;9481;48.796;9.210;2022-11-13T03:05:05;5.93;;;4.13;;
18702;SDS011;9481;48.796;9.210;2022-11-13T03:07:32;5.73;;;4.00;;
18702;SDS011;9481;48.796;9.210;2022-11-13T03:09:58;6.17;;;4.20;;
18702;SDS011;9481;48.796;9.210;2022-11-13T03:12:24;5.33;;;4.10;;
18702;SDS011;9481;48.796;9.210;2022-11-13T03:14:49;4.80;;;3.77;;
18702;SDS011;9481;48.796;9.210;2022-11-13T03:17:15;4.40;;;4.00;;
18702;SDS011;9481;48.796;9.210;2022-11-13T03:19:41;4.43;;;3.90;;
18702;SDS011;9481;48.796;9.210;2022-11-13T03:22:06;4.93;;;4.10;;
18702;SDS011;9481;48.796;9.210;2022-11-13T03:24:32;4.93;;;4.03;;
18702;SDS011;9481;48.796;9.210;2022-11-13T03:26:58;4.40;;;4.00;;
18702;SDS011;9481;48.796;9.210;2022-11-13T03:29:23;4.67;;;4.13;;
18702;SDS011;9481;48.796;9.210;2022-11-13T03:31:49;4.50;;;3.77;;
18702;SDS011;9481;48.796;9.210;2022-11-13T03:34:15;4.30;;;3.80;;
18702;SDS011;9481;48.796;9.210;2022-11-13T03:36:41;3.97;;;3.57;;
18702;SDS011;9481;48.796;9.210;2022-11-13T03:39:07;4.47;;;3.83;;
18702;SDS011;9481;48.796;9.210;2022-11-13T03:41:32;4.00;;;3.57;;
18702;SDS011;9481;48.796;9.210;2022-11-13T03:43:58;4.60;;;3.67;;
18702;SDS011;9481;48.796;9.210;2022-11-13T03:46:24;5.17;;;3.70;;
18702;SDS011;9481;48.796;9.210;2022-11-13T03:48:49;3.57;;;3.27;;
18702;SDS011;9481;48.796;9.210;2022-11-13T03:51:15;3.87;;;3.47;;
18702;SDS011;9481;48.796;9.210;2022-11-13T03:53:41;4.77;;;3.67;;
18702;SDS011;9481;48.796;9.210;2022-11-13T03:56:06;4.63;;;3.97;;
18702;SDS011;9481;48.796;9.210;2022-11-13T03:58:32;4.63;;;3.67;;
18702;SDS011;9481;48.796;9.210;2022-11-13T04:00:58;4.43;;;3.57;;
18702;SDS011;9481;48.796;9.210;2022-11-13T04:03:23;4.17;;;3.60;;
18702;SDS011;9481;48.796;9.210;2022-11-13T04:05:49;4.67;;;3.87;;
18702;SDS011;9481;48.796;9.210;2022-11-13T04:08:16;4.43;;;3.77;;
18702;SDS011;9481;48.796;9.210;2022-11-13T04:10:43;4.60;;;3.90;;
18702;SDS011;9481;48.796;9.210;2022-11-13T04:13:09;4.37;;;3.50;;
18702;SDS011;9481;48.796;9.210;2022-11-13T04:15:34;5.07;;;3.67;;
18702;SDS011;9481;48.796;9.210;2022-11-13T04:18:00;4.37;;;3.90;;
18702;SDS011;9481;48.796;9.210;2022-11-13T04:20:26;5.50;;;3.43;;
18702;SDS011;9481;48.796;9.210;2022-11-13T04:22:53;3.80;;;3.37;;
18702;SDS011;9481;48.796;9.210;2022-11-13T04:25:20;4.00;;;3.60;;
18702;SDS011;9481;48.796;9.210;2022-11-13T04:27:47;4.50;;;3.90;;
18702;SDS011;9481;48.796;9.210;2022-11-13T04:30:17;4.37;;;3.97;;
18702;SDS011;9481;48.796;9.210;2022-11-13T04:32:43;5.13;;;4.00;;
18702;SDS011;9481;48.796;9.210;2022-11-13T04:35:09;4.20;;;3.80;;
18702;SDS011;9481;48.796;9.210;2022-11-13T04:37:35;4.73;;;4.10;;
18702;SDS011;9481;48.796;9.210;2022-11-13T04:40:02;4.20;;;3.73;;
18702;SDS011;9481;48.796;9.210;2022-11-13T04:42:29;4.03;;;3.40;;
18702;SDS011;9481;48.796;9.210;2022-11-13T04:45:12;5.63;;;3.57;;
18702;SDS011;9481;48.796;9.210;2022-11-13T04:47:43;4.57;;;3.90;;
18702;SDS011;9481;48.796;9.210;2022-11-13T04:50:09;4.17;;;3.60;;
18702;SDS011;9481;48.796;9.210;2022-11-13T04:52:35;4.53;;;3.97;;
18702;SDS011;9481;48.796;9.210;2022-11-13T04:55:01;4.87;;;4.37;;
18702;SDS011;9481;48.796;9.210;2022-11-13T04:57:29;3.83;;;3.43;;
18702;SDS011;9481;48.796;9.210;2022-11-13T04:59:54;6.23;;;4.20;;
18702;SDS011;9481;48.796;9.210;2022-11-13T05:02:20;5.67;;;3.70;;
18702;SDS011;9481;48.796;9.210;2022-11-13T05:04:46;5.20;;;3.97;;
18702;SDS011;9481;48.796;9.210;2022-11-13T05:07:12;4.07;;;3.63;;
18702;SDS011;9481;48.796;9.210;2022-11-13T05:09:37;4.57;;;3.77;;
18702;SDS011;9481;48.796;9.210;2022-11-13T05:12:03;4.33;;;3.57;;
18702;SDS011;9481;48.796;9.210;2022-11-13T05:14:32;5.77;;;4.17;;
18702;SDS011;9481;48.796;9.210;2022-11-13T05:17:02;5.03;;;3.87;;
18702;SDS011;9481;48.796;9.210;2022-11-13T05:19:31;5.03;;;3.47;;
18702;SDS011;9481;48.796;9.210;2022-11-13T05:21:57;4.13;;;3.70;;
18702;SDS011;9481;48.796;9.210;2022-11-13T05:24:24;3.83;;;3.40;;
18702;SDS011;9481;48.796;9.210;2022-11-13T05:26:49;4.40;;;3.70;;
18702;SDS011;9481;48.796;9.210;2022-11-13T05:29:15;4.60;;;3.83;;
18702;SDS011;9481;48.796;9.210;2022-11-13T05:31:42;4.00;;;3.60;;
18702;SDS011;9481;48.796;9.210;2022-11-13T05:34:08;4.37;;;3.60;;
18702;SDS011;9481;48.796;9.210;2022-11-13T05:36:34;4.70;;;3.67;;
18702;SDS011;9481;48.796;9.210;2022-11-13T05:39:00;4.33;;;3.90;;
18702;SDS011;9481;48.796;9.210;2022-11-13T05:41:26;5.17;;;4.03;;
18702;SDS011;9481;48.796;9.210;2022-11-13T05:43:52;4.47;;;3.30;;
18702;SDS011;9481;48.796;9.210;2022-11-13T05:46:19;5.13;;;3.60;;
18702;SDS011;9481;48.796;9.210;2022-11-13T05:48:51;6.77;;;4.00;;
18702;SDS011;9481;48.796;9.210;2022-11-13T05:51:22;4.53;;;3.90;;
18702;SDS011;9481;48.796;9.210;2022-11-13T05:53:51;4.27;;;3.63;;
18702;SDS011;9481;48.796;9.210;2022-11-13T05:56:25;4.97;;;3.70;;
18702;SDS011;9481;48.796;9.210;2022-11-13T05:58:59;4.30;;;3.90;;
18702;SDS011;9481;48.796;9.210;2022-11-13T06:01:28;4.20;;;3.80;;
18702;SDS011;9481;48.796;9.210;2022-11-13T06:03:57;5.47;;;4.33;;
18702;SDS011;9481;48.796;9.210;2022-11-13T06:06:25;3.97;;;3.60;;
18702;SDS011;9481;48.796;9.210;2022-11-13T06:08:53;6.87;;;4.53;;
18702;SDS011;9481;48.796;9.210;2022-11-13T06:11:21;6.40;;;5.17;;
18702;SDS011;9481;48.796;9.210;2022-11-13T06:13:50;5.33;;;4.20;;
18702;SDS011;9481;48.796;9.210;2022-11-13T06:16:19;6.83;;;4.87;;
18702;SDS011;9481;48.796;9.210;2022-11-13T06:18:47;6.23;;;5.03;;
18702;SDS011;9481;48.796;9.210;2022-11-13T06:21:18;5.30;;;4.30;;
18702;SDS011;9481;48.796;9.210;2022-11-13T06:23:47;5.87;;;4.80;;
18702;SDS011;9481;48.796;9.210;2022-11-13T06:26:14;4.70;;;4.23;;
18702;SDS011;9481;48.796;9.210;2022-11-13T06:28:44;5.93;;;4.40;;
18702;SDS011;9481;48.796;9.210;2022-11-13T06:31:14;5.57;;;4.63;;
18702;SDS011;9481;48.796;9.210;2022-11-13T06:33:46;5.97;;;4.90;;
18702;SDS011;9481;48.796;9.210;2022-11-13T06:36:20;6.47;;;5.27;;
18702;SDS011;9481;48.796;9.210;2022-11-13T06:38:49;7.97;;;5.53;;
18702;SDS011;9481;48.796;9.210;2022-11-13T06:41:16;9.10;;;5.47;;
18702;SDS011;9481;48.796;9.210;2022-11-13T06:43:45;18.73;;;5.67;;
18702;SDS011;9481;48.796;9.210;2022-11-13T06:46:21;9.03;;;5.30;;
18702;SDS011;9481;48.796;9.210;2022-11-13T06:48:49;8.73;;;5.17;;
18702;SDS011;9481;48.796;9.210;2022-11-13T06:51:17;17.30;;;6.20;;
18702;SDS011;9481;48.796;9.210;2022-11-13T06:53:45;7.13;;;5.50;;
18702;SDS011;9481;48.796;9.210;2022-11-13T06:56:12;6.03;;;5.20;;
18702;SDS011;9481;48.796;9.210;2022-11-13T06:58:38;7.23;;;5.20;;
18702;SDS011;9481;48.796;9.210;2022-11-13T07:03:37;6.40;;;4.20;;
18702;SDS011;9481;48.796;9.210;2022-11-13T07:06:04;6.47;;;4.47;;
18702;SDS011;9481;48.796;9.210;2022-11-13T07:08:32;4.73;;;3.97;;
18702;SDS011;9481;48.796;9.210;2022-11-13T07:10:59;5.93;;;4.23;;
18702;SDS011;9481;48.796;9.210;2022-11-13T07:13:25;6.47;;;4.60;;
18702;SDS011;9481;48.796;9.210;2022-11-13T07:15:52;5.80;;;4.73;;
18702;SDS011;9481;48.796;9.210;2022-11-13T07:18:18;6.07;;;4.87;;
18702;SDS011;9481;48.796;9.210;2022-11-13T07:20:46;6.37;;;4.90;;
18702;SDS011;9481;48.796;9.210;2022-11-13T07:23:12;6.50;;;4.83;;
18702;SDS011;9481;48.796;9.210;2022-11-13T07:25:38;6.13;;;4.97;;
18702;SDS011;9481;48.796;9.210;2022-11-13T07:28:03;6.70;;;5.10;;
18702;SDS011;9481;48.796;9.210;2022-11-13T07:30:29;7.90;;;5.27;;
18702;SDS011;9481;48.796;9.210;2022-11-13T07:32:55;6.17;;;4.20;;
18702;SDS011;9481;48.796;9.210;2022-11-13T07:35:25;6.20;;;4.93;;
18702;SDS011;9481;48.796;9.210;2022-11-13T07:37:54;6.57;;;4.87;;
18702;SDS011;9481;48.796;9.210;2022-11-13T07:40:21;5.87;;;4.70;;
18702;SDS011;9481;48.796;9.210;2022-11-13T07:42:46;7.43;;;5.90;;
18702;SDS011;9481;48.796;9.210;2022-11-13T07:45:12;7.50;;;5.60;;
18702;SDS011;9481;48.796;9.210;2022-11-13T07:47:38;5.97;;;5.00;;
18702;SDS011;9481;48.796;9.210;2022-11-13T07:50:03;5.93;;;5.00;;
18702;SDS011;9481;48.796;9.210;2022-11-13T07:52:29;7.23;;;4.90;;
18702;SDS011;9481;48.796;9.210;2022-11-13T07:54:55;6.83;;;4.47;;
18702;SDS011;9481;48.796;9.210;2022-11-13T07:57:21;5.07;;;4.13;;
18702;SDS011;9481;48.796;9.210;2022-11-13T07:59:47;5.67;;;4.17;;
18702;SDS011;9481;48.796;9.210;2022-11-13T08:02:13;6.10;;;4.60;;
18702;SDS011;9481;48.796;9.210;2022-11-13T08:04:40;6.47;;;4.80;;
18702;SDS011;9481;48.796;9.210;2022-11-13T08:07:06;5.30;;;4.67;;
18702;SDS011;9481;48.796;9.210;2022-11-13T08:09:34;6.30;;;4.63;;
18702;SDS011;9481;48.796;9.210;2022-11-13T08:12:00;5.70;;;4.63;;
18702;SDS011;9481;48.796;9.210;2022-11-13T08:14:25;6.33;;;4.80;;
18702;SDS011;9481;48.796;9.210;2022-11-13T08:16:51;5.50;;;4.43;;
18702;SDS011;9481;48.796;9.210;2022-11-13T08:19:17;4.90;;;4.40;;
18702;SDS011;9481;48.796;9.210;2022-11-13T08:21:42;5.80;;;4.70;;
18702;SDS011;9481;48.796;9.210;2022-11-13T08:24:08;4.90;;;4.40;;
18702;SDS011;9481;48.796;9.210;2022-11-13T08:26:36;7.07;;;5.57;;
18702;SDS011;9481;48.796;9.210;2022-11-13T08:29:02;6.70;;;5.07;;
18702;SDS011;9481;48.796;9.210;2022-11-13T08:31:28;8.37;;;6.27;;
18702;SDS011;9481;48.796;9.210;2022-11-13T08:33:54;8.07;;;6.17;;
18702;SDS011;9481;48.796;9.210;2022-11-13T08:36:20;8.87;;;6.70;;
18702;SDS011;9481;48.796;9.210;2022-11-13T08:38:46;9.10;;;7.47;;
18702;SDS011;9481;48.796;9.210;2022-11-13T08:41:12;8.03;;;6.50;;
18702;SDS011;9481;48.796;9.210;2022-11-13T08:43:38;8.80;;;6.33;;
18702;SDS011;9481;48.796;9.210;2022-11-13T08:46:04;6.63;;;5.47;;
18702;SDS011;9481;48.796;9.210;2022-11-13T08:48:30;8.17;;;5.57;;
18702;SDS011;9481;48.796;9.210;2022-11-13T08:50:56;7.90;;;5.60;;
18702;SDS011;9481;48.796;9.210;2022-11-13T08:53:22;7.00;;;5.70;;
18702;SDS011;9481;48.796;9.210;2022-11-13T08:55:49;6.40;;;5.40;;
18702;SDS011;9481;48.796;9.210;2022-11-13T08:58:15;7.50;;;5.83;;
18702;SDS011;9481;48.796;9.210;2022-11-13T09:00:41;5.97;;;4.93;;
18702;SDS011;9481;48.796;9.210;2022-11-13T09:03:08;5.73;;;4.80;;
18702;SDS011;9481;48.796;9.210;2022-11-13T09:05:36;6.07;;;5.27;;
18702;SDS011;9481;48.796;9.210;2022-11-13T09:08:02;5.90;;;5.30;;
18702;SDS011;9481;48.796;9.210;2022-11-13T09:10:29;7.70;;;5.30;;
18702;SDS011;9481;48.796;9.210;2022-11-13T09:12:55;7.07;;;5.50;;
18702;SDS011;9481;48.796;9.210;2022-11-13T09:15:27;7.20;;;6.10;;
18702;SDS011;9481;48.796;9.210;2022-11-13T09:17:55;5.83;;;5.23;;
18702;SDS011;9481;48.796;9.210;2022-11-13T09:20:22;7.60;;;6.00;;
18702;SDS011;9481;48.796;9.210;2022-11-13T09:22:48;7.60;;;6.50;;
18702;SDS011;9481;48.796;9.210;2022-11-13T09:25:19;7.70;;;6.30;;
18702;SDS011;9481;48.796;9.210;2022-11-13T09:27:50;7.20;;;6.30;;
18702;SDS011;9481;48.796;9.210;2022-11-13T09:30:19;6.20;;;5.60;;
18702;SDS011;9481;48.796;9.210;2022-11-13T09:32:44;5.70;;;5.10;;
18702;SDS011;9481;48.796;9.210;2022-11-13T09:35:10;7.63;;;5.70;;
18702;SDS011;9481;48.796;9.210;2022-11-13T09:37:36;5.90;;;5.30;;
18702;SDS011;9481;48.796;9.210;2022-11-13T09:40:02;5.60;;;5.00;;
18702;SDS011;9481;48.796;9.210;2022-11-13T09:42:28;7.40;;;5.30;;
18702;SDS011;9481;48.796;9.210;2022-11-13T09:45:00;5.67;;;4.90;;
18702;SDS011;9481;48.796;9.210;2022-11-13T09:47:35;5.80;;;5.20;;
18702;SDS011;9481;48.796;9.210;2022-11-13T09:50:11;5.20;;;4.70;;
18702;SDS011;9481;48.796;9.210;2022-11-13T09:52:44;5.33;;;4.70;;
18702;SDS011;9481;48.796;9.210;2022-11-13T09:55:11;5.23;;;4.73;;
18702;SDS011;9481;48.796;9.210;2022-11-13T09:57:49;5.40;;;4.90;;
18702;SDS011;9481;48.796;9.210;2022-11-13T10:00:29;5.20;;;4.60;;
18702;SDS011;9481;48.796;9.210;2022-11-13T10:03:07;5.63;;;4.10;;
18702;SDS011;9481;48.796;9.210;2022-11-13T10:08:55;5.97;;;4.67;;
18702;SDS011;9481;48.796;9.210;2022-11-13T10:11:42;5.13;;;4.63;;
18702;SDS011;9481;48.796;9.210;2022-11-13T10:14:25;5.73;;;5.13;;
18702;SDS011;9481;48.796;9.210;2022-11-13T10:17:05;5.60;;;5.10;;
18702;SDS011;9481;48.796;9.210;2022-11-13T10:19:57;8.03;;;7.23;;
18702;SDS011;9481;48.796;9.210;2022-11-13T10:22:40;6.67;;;6.07;;
18702;SDS011;9481;48.796;9.210;2022-11-13T10:25:20;8.90;;;6.90;;
18702;SDS011;9481;48.796;9.210;2022-11-13T10:27:52;6.10;;;5.50;;
18702;SDS011;9481;48.796;9.210;2022-11-13T10:30:22;7.00;;;6.23;;
18702;SDS011;9481;48.796;9.210;2022-11-13T10:32:48;5.87;;;5.00;;
18702;SDS011;9481;48.796;9.210;2022-11-13T10:38:03;5.30;;;4.43;;
18702;SDS011;9481;48.796;9.210;2022-11-13T10:40:51;5.77;;;4.50;;
18702;SDS011;9481;48.796;9.210;2022-11-13T10:43:32;6.10;;;5.20;;
18702;SDS011;9481;48.796;9.210;2022-11-13T10:45:59;6.00;;;5.50;;
18702;SDS011;9481;48.796;9.210;2022-11-13T10:51:02;4.70;;;4.20;;
18702;SDS011;9481;48.796;9.210;2022-11-13T10:53:42;4.77;;;4.33;;
18702;SDS011;9481;48.796;9.210;2022-11-13T11:01:40;4.57;;;4.17;;
18702;SDS011;9481;48.796;9.210;2022-11-13T11:04:25;4.57;;;4.03;;
18702;SDS011;9481;48.796;9.210;2022-11-13T11:06:52;4.43;;;4.03;;
18702;SDS011;9481;48.796;9.210;2022-11-13T11:12:00;5.10;;;4.60;;
18702;SDS011;9481;48.796;9.210;2022-11-13T11:20:02;5.87;;;4.43;;
18702;SDS011;9481;48.796;9.210;2022-11-13T11:22:50;5.40;;;4.90;;
18702;SDS011;9481;48.796;9.210;2022-11-13T11:25:33;5.20;;;4.70;;
18702;SDS011;9481;48.796;9.210;2022-11-13T11:28:18;5.33;;;4.83;;
18702;SDS011;9481;48.796;9.210;2022-11-13T11:30:48;5.37;;;4.57;;
18702;SDS011;9481;48.796;9.210;2022-11-13T11:33:22;5.23;;;4.73;;
18702;SDS011;9481;48.796;9.210;2022-11-13T11:36:04;5.13;;;4.37;;
18702;SDS011;9481;48.796;9.210;2022-11-13T11:38:58;5.80;;;4.97;;
18702;SDS011;9481;48.796;9.210;2022-11-13T11:41:54;5.00;;;4.50;;
18702;SDS011;9481;48.796;9.210;2022-11-13T11:47:38;4.60;;;4.20;;
18702;SDS011;9481;48.796;9.210;2022-11-13T11:50:04;5.00;;;4.50;;
18702;SDS011;9481;48.796;9.210;2022-11-13T12:07:21;4.90;;;4.50;;
18702;SDS011;9481;48.796;9.210;2022-11-13T12:13:30;4.83;;;3.90;;
18702;SDS011;9481;48.796;9.210;2022-11-13T12:27:23;4.23;;;3.83;;
18702;SDS011;9481;48.796;9.210;2022-11-13T12:35:44;4.00;;;3.70;;
18702;SDS011;9481;48.796;9.210;2022-11-13T12:38:20;4.10;;;3.80;;
18702;SDS011;9481;48.796;9.210;2022-11-13T12:46:53;4.10;;;3.73;;
18702;SDS011;9481;48.796;9.210;2022-11-13T12:49:25;4.40;;;4.10;;
18702;SDS011;9481;48.796;9.210;2022-11-13T12:52:00;4.70;;;4.30;;
18702;SDS011;9481;48.796;9.210;2022-11-13T12:54:46;4.43;;;4.03;;
18702;SDS011;9481;48.796;9.210;2022-11-13T12:59:39;4.90;;;4.50;;
18702;SDS011;9481;48.796;9.210;2022-11-13T13:02:16;4.97;;;4.53;;
18702;SDS011;9481;48.796;9.210;2022-11-13T13:11:16;5.63;;;5.13;;
18702;SDS011;9481;48.796;9.210;2022-11-13T13:16:43;5.53;;;5.07;;
18702;SDS011;9481;48.796;9.210;2022-11-13T13:19:31;5.43;;;4.90;;
18702;SDS011;9481;48.796;9.210;2022-11-13T13:21:58;5.73;;;5.17;;
18702;SDS011;9481;48.796;9.210;2022-11-13T13:26:59;6.17;;;5.50;;
18702;SDS011;9481;48.796;9.210;2022-11-13T13:29:26;5.67;;;5.17;;
18702;SDS011;9481;48.796;9.210;2022-11-13T13:40:53;5.27;;;4.77;;
18702;SDS011;9481;48.796;9.210;2022-11-13T13:43:46;5.70;;;5.20;;
18702;SDS011;9481;48.796;9.210;2022-11-13T13:46:46;5.40;;;5.00;;
18702;SDS011;9481;48.796;9.210;2022-11-13T13:49:14;5.83;;;5.20;;
18702;SDS011;9481;48.796;9.210;2022-11-13T13:51:45;6.40;;;5.80;;
18702;SDS011;9481;48.796;9.210;2022-11-13T13:54:20;5.17;;;4.77;;
18702;SDS011;9481;48.796;9.210;2022-11-13T13:56:51;5.60;;;4.83;;
18702;SDS011;9481;48.796;9.210;2022-11-13T13:59:24;5.80;;;5.30;;
18702;SDS011;9481;48.796;9.210;2022-11-13T14:01:57;5.70;;;5.10;;
18702;SDS011;9481;48.796;9.210;2022-11-13T14:04:32;5.43;;;4.80;;
18702;SDS011;9481;48.796;9.210;2022-11-13T14:07:17;5.50;;;4.87;;
18702;SDS011;9481;48.796;9.210;2022-11-13T14:10:04;5.23;;;4.73;;
18702;SDS011;9481;48.796;9.210;2022-11-13T14:12:43;5.70;;;5.10;;
18702;SDS011;9481;48.796;9.210;2022-11-13T14:18:07;7.93;;;5.30;;
18702;SDS011;9481;48.796;9.210;2022-11-13T14:20:42;6.97;;;5.13;;
18702;SDS011;9481;48.796;9.210;2022-11-13T14:23:21;6.90;;;5.53;;
18702;SDS011;9481;48.796;9.210;2022-11-13T14:25:53;6.43;;;5.63;;
18702;SDS011;9481;48.796;9.210;2022-11-13T14:28:21;6.37;;;5.57;;
18702;SDS011;9481;48.796;9.210;2022-11-13T14:30:56;5.60;;;5.10;;
18702;SDS011;9481;48.796;9.210;2022-11-13T14:33:46;6.63;;;5.93;;
18702;SDS011;9481;48.796;9.210;2022-11-13T14:36:14;7.77;;;5.67;;
18702;SDS011;9481;48.796;9.210;2022-11-13T14:38:50;6.53;;;5.53;;
18702;SDS011;9481;48.796;9.210;2022-11-13T14:41:19;6.50;;;5.77;;
18702;SDS011;9481;48.796;9.210;2022-11-13T14:43:51;8.10;;;6.20;;
18702;SDS011;9481;48.796;9.210;2022-11-13T14:49:28;7.23;;;6.00;;
18702;SDS011;9481;48.796;9.210;2022-11-13T14:52:00;6.87;;;5.67;;
18702;SDS011;9481;48.796;9.210;2022-11-13T14:54:29;7.80;;;5.63;;
18702;SDS011;9481;48.796;9.210;2022-11-13T14:57:06;6.53;;;5.77;;
18702;SDS011;9481;48.796;9.210;2022-11-13T14:59:39;6.63;;;5.60;;
18702;SDS011;9481;48.796;9.210;2022-11-13T15:02:09;6.63;;;5.93;;
18702;SDS011;9481;48.796;9.210;2022-11-13T15:04:36;7.87;;;6.33;;
18702;SDS011;9481;48.796;9.210;2022-11-13T15:07:15;6.87;;;6.17;;
18702;SDS011;9481;48.796;9.210;2022-11-13T15:09:52;9.30;;;6.57;;
18702;SDS011;9481;48.796;9.210;2022-11-13T15:12:19;8.77;;;6.30;;
18702;SDS011;9481;48.796;9.210;2022-11-13T15:14:45;7.00;;;5.53;;
18702;SDS011;9481;48.796;9.210;2022-11-13T15:17:14;6.80;;;6.03;;
18702;SDS011;9481;48.796;9.210;2022-11-13T15:19:44;6.03;;;5.13;;
18702;SDS011;9481;48.796;9.210;2022-11-13T15:22:14;6.73;;;5.33;;
18702;SDS011;9481;48.796;9.210;2022-11-13T15:24:40;6.60;;;5.50;;
18702;SDS011;9481;48.796;9.210;2022-11-13T15:27:14;6.53;;;5.20;;
18702;SDS011;9481;48.796;9.210;2022-11-13T15:29:40;6.37;;;5.33;;
18702;SDS011;9481;48.796;9.210;2022-11-13T15:32:08;6.63;;;5.17;;
18702;SDS011;9481;48.796;9.210;2022-11-13T15:34:38;5.90;;;5.30;;
18702;SDS011;9481;48.796;9.210;2022-11-13T15:37:14;5.93;;;5.17;;
18702;SDS011;9481;48.796;9.210;2022-11-13T15:39:41;12.17;;;5.80;;
18702;SDS011;9481;48.796;9.210;2022-11-13T15:42:10;6.07;;;5.30;;
18702;SDS011;9481;48.796;9.210;2022-11-13T15:44:42;6.50;;;5.67;;
18702;SDS011;9481;48.796;9.210;2022-11-13T15:47:28;6.60;;;5.53;;
18702;SDS011;9481;48.796;9.210;2022-11-13T15:49:57;7.20;;;5.93;;
18702;SDS011;9481;48.796;9.210;2022-11-13T15:52:23;7.97;;;5.80;;
18702;SDS011;9481;48.796;9.210;2022-11-13T15:54:51;6.63;;;5.57;;
18702;SDS011;9481;48.796;9.210;2022-11-13T15:59:54;7.97;;;5.60;;
18702;SDS011;9481;48.796;9.210;2022-11-13T16:02:20;7.57;;;5.83;;
18702;SDS011;9481;48.796;9.210;2022-11-13T16:04:45;7.10;;;6.00;;
18702;SDS011;9481;48.796;9.210;2022-11-13T16:07:16;7.17;;;6.03;;
18702;SDS011;9481;48.796;9.210;2022-11-13T16:09:56;7.33;;;5.90;;
18702;SDS011;9481;48.796;9.210;2022-11-13T16:12:21;7.27;;;5.77;;
18702;SDS011;9481;48.796;9.210;2022-11-13T16:14:47;8.03;;;6.27;;
18702;SDS011;9481;48.796;9.210;2022-11-13T16:17:16;8.80;;;5.97;;
18702;SDS011;9481;48.796;9.210;2022-11-13T16:19:49;9.73;;;7.17;;
18702;SDS011;9481;48.796;9.210;2022-11-13T16:22:22;7.77;;;6.40;;
18702;SDS011;9481;48.796;9.210;2022-11-13T16:24:51;10.03;;;6.80;;
18702;SDS011;9481;48.796;9.210;2022-11-13T16:27:23;9.10;;;6.83;;
18702;SDS011;9481;48.796;9.210;2022-11-13T16:29:55;8.13;;;6.70;;
18702;SDS011;9481;48.796;9.210;2022-11-13T16:32:21;7.90;;;6.50;;
18702;SDS011;9481;48.796;9.210;2022-11-13T16:34:47;8.23;;;6.60;;
18702;SDS011;9481;48.796;9.210;2022-11-13T16:37:17;7.27;;;6.00;;
18702;SDS011;9481;48.796;9.210;2022-11-13T16:39:48;7.87;;;6.30;;
18702;SDS011;9481;48.796;9.210;2022-11-13T16:42:15;7.60;;;6.13;;
18702;SDS011;9481;48.796;9.210;2022-11-13T16:44:41;8.87;;;7.03;;
18702;SDS011;9481;48.796;9.210;2022-11-13T16:47:16;8.43;;;7.50;;
18702;SDS011;9481;48.796;9.210;2022-11-13T16:49:47;13.37;;;8.20;;
18702;SDS011;9481;48.796;9.210;2022-11-13T16:52:13;10.30;;;8.07;;
18702;SDS011;9481;48.796;9.210;2022-11-13T16:54:39;9.40;;;8.30;;
18702;SDS011;9481;48.796;9.210;2022-11-13T16:57:07;11.90;;;8.30;;
18702;SDS011;9481;48.796;9.210;2022-11-13T16:59:37;9.90;;;7.40;;